Latest Weather Observations for Evans Head

IDN60801

Issued at 7:32 pm EST Thursday 2 July 2015 (issued every 30 minutes, with the page automatically refreshed every 10 minutes)

About weather observations | Map of weather stations | Latest weather observations for NSW | Other Formats
Station Details ID: 058212 Name: EVANS HEAD RAAF BOMBING RANGE AWS Lat: -29.18 Lon: 153.40 Height: 62.5 m
Data from the previous 72 hours. | See also: Recent months at Evans Head
Date/Time
EST
Temp
°C
App
Temp
°C
Dew
Point
Rel
Hum
%
Delta-T
°C
Wind Press
QNH
hPa
Press
MSL
hPa
Rain
since 9 am
mm
Dir
 
Spd
km/h
Gust
km/h
Spd
kts
Gust
kts
02/07:30pm 13.4 9.6 5.6 59 3.7 WNW 15 22 8 12 1017.6 1017.5 0.0
02/07:00pm 13.7 10.0 6.1 60 3.6 WNW 15 19 8 10 1017.7 1017.6 0.0
02/06:30pm 13.8 10.7 7.1 64 3.3 W 13 20 7 11 1017.4 1017.3 0.0
02/06:00pm 12.7 9.6 7.4 70 2.6 WNW 13 15 7 8 1017.2 1017.1 0.0
02/05:30pm 13.7 10.8 8.3 70 2.7 WNW 13 17 7 9 1017.0 1016.9 0.0
02/05:00pm 14.3 11.5 8.5 68 2.9 W 13 17 7 9 1016.9 1016.8 0.0
02/04:30pm 15.0 12.3 8.9 67 3.1 W 13 19 7 10 1016.9 1016.8 0.0
02/04:00pm 16.9 14.4 9.8 63 3.7 W 13 19 7 10 1016.8 1016.7 0.0
02/03:30pm 18.1 16.6 10.5 61 4.1 W 9 20 5 11 1016.6 1016.5 0.0
02/03:00pm 19.8 17.7 11.3 58 4.7 WNW 13 20 7 11 1016.8 1016.7 0.0
02/02:30pm 19.3 18.1 11.6 61 4.3 WNW 9 15 5 8 1016.6 1016.5 0.0
02/02:00pm 19.2 18.1 12.0 63 4.0 W 9 19 5 10 1017.1 1017.0 0.0
02/01:30pm 17.7 16.3 11.0 65 3.6 WNW 9 15 5 8 1017.2 1017.1 0.0
02/01:00pm 18.7 17.6 12.0 65 3.7 W 9 17 5 9 1017.7 1017.6 0.0
02/12:30pm 18.0 15.9 11.1 64 3.7 WNW 13 20 7 11 1018.1 1018.0 0.0
02/12:00pm 18.0 16.3 11.3 65 3.6 W 11 17 6 9 1018.5 1018.4 0.0
02/11:30am 19.2 17.2 11.5 61 4.2 WNW 13 20 7 11 1018.9 1018.8 0.0
02/11:00am 19.0 17.1 13.0 68 3.4 WNW 15 20 8 11 1019.9 1019.8 0.0
02/10:30am 17.2 15.5 12.3 73 2.7 WNW 13 20 7 11 1020.4 1020.4 0.0
02/10:00am 16.2 13.7 10.9 71 2.8 WNW 15 24 8 13 1020.6 1020.6 0.0
02/09:30am 15.6 13.9 12.4 81 1.8 WNW 13 20 7 11 1020.8 1020.8 0.0
02/09:00am 14.6 12.6 11.6 82 1.6 WNW 13 22 7 12 1021.2 1021.2 0.0
02/08:30am 13.4 11.5 12.9 97 0.3 WNW 15 22 8 12 1021.0 1021.0 0.0
02/08:00am 12.3 10.9 12.1 99 0.1 WNW 11 15 6 8 1020.9 1020.9 0.0
02/07:30am 10.9 9.4 10.6 98 0.2 NW 9 11 5 6 1021.0 1021.0 0.0
02/07:00am 10.9 9.4 10.6 98 0.2 WNW 9 11 5 6 1020.8 1020.8 0.0
02/06:30am 11.5 10.2 11.3 99 0.1 W 9 15 5 8 1020.5 1020.5 0.0
02/06:00am 11.5 9.8 11.3 99 0.1 W 11 15 6 8 1020.3 1020.3 0.0
02/05:30am 10.8 9.3 10.5 98 0.2 NW 9 11 5 6 1019.9 1019.8 0.0
02/05:00am 12.3 11.2 12.0 98 0.2 WSW 9 11 5 6 1019.9 1019.8 0.0
02/04:30am 12.5 11.9 12.2 98 0.2 SW 7 11 4 6 1019.7 1019.6 0.0
02/04:00am 12.8 11.5 12.5 98 0.2 WSW 11 13 6 7 1020.2 1020.1 0.0
02/03:30am 13.0 11.8 12.7 98 0.2 WSW 11 15 6 8 1020.6 1020.6 0.0
02/03:00am 13.4 12.3 13.1 98 0.2 SW 11 13 6 7 1020.7 1020.7 0.0
02/02:30am 13.5 12.4 13.2 98 0.2 WSW 11 17 6 9 1020.6 1020.6 0.0
02/02:00am 13.8 12.8 13.5 98 0.2 WSW 11 15 6 8 1020.9 1020.9 0.0
02/01:30am 14.1 13.2 13.8 98 0.2 WSW 11 15 6 8 1021.1 1021.1 0.0
02/01:00am 14.2 13.3 13.7 97 0.3 WSW 11 15 6 8 1021.3 1021.3 0.0
02/12:30am 14.5 13.7 14.0 97 0.3 SW 11 15 6 8 1021.4 1021.4 0.0
02/12:00am 14.6 13.8 14.1 97 0.3 WSW 11 15 6 8 1021.6 1021.6 0.0
 
Date/Time
EST
Temp
°C
App
Temp
°C
Dew
Point
Rel
Hum
%
Delta-T
°C
Wind Press
QNH
hPa
Press
MSL
hPa
Rain
since 9 am
mm
Dir
 
Spd
km/h
Gust
km/h
Spd
kts
Gust
kts
01/11:30pm 15.1 14.5 14.6 97 0.3 SW 11 17 6 9 1021.8 1021.8 0.0
01/11:00pm 15.0 14.4 14.5 97 0.3 WSW 11 13 6 7 1022.1 1022.1 0.0
01/10:30pm 14.5 13.8 14.2 98 0.2 WSW 11 15 6 8 1022.0 1022.0 0.0
01/10:00pm 14.4 13.2 14.1 98 0.2 WSW 13 17 7 9 1022.3 1022.3 0.0
01/09:30pm 14.8 13.3 14.3 97 0.3 SW 15 20 8 11 1022.4 1022.4 0.0
01/09:00pm 15.8 15.5 14.3 91 0.9 S 9 13 5 7 1022.5 1022.5 0.0
01/08:30pm 16.1 15.9 14.8 92 0.7 SSE 9 15 5 8 1022.4 1022.4 0.0
01/08:00pm 15.0 14.4 14.5 97 0.3 SSE 11 19 6 10 1022.1 1022.1 0.0
01/07:30pm 15.6 15.2 15.1 97 0.3 SE 11 15 6 8 1021.9 1021.9 0.0
01/07:00pm 14.9 14.2 14.4 97 0.3 SE 11 15 6 8 1021.8 1021.8 0.0
01/06:30pm 15.3 15.1 14.8 97 0.3 ESE 9 13 5 7 1021.6 1021.6 0.0
01/06:00pm 15.4 15.3 14.9 97 0.3 SE 9 13 5 7 1021.3 1021.3 0.0
01/05:30pm 15.8 15.4 15.3 97 0.3 SE 11 17 6 9 1021.1 1021.1 0.0
01/05:00pm 16.0 15.2 15.2 95 0.5 SE 13 17 7 9 1020.9 1020.9 0.0
01/04:30pm 16.7 16.3 15.1 90 0.9 SE 11 17 6 9 1020.8 1020.8 0.0
01/04:00pm 17.5 17.2 15.5 88 1.2 ESE 11 15 6 8 1020.9 1020.9 0.0
01/03:30pm 17.2 16.8 15.2 88 1.2 ESE 11 17 6 9 1020.8 1020.8 0.0
01/03:00pm 18.0 18.1 15.6 86 1.4 ESE 9 13 5 7 1020.9 1020.9 0.0
01/02:30pm 18.2 17.4 15.1 82 1.8 ESE 13 17 7 9 1021.0 1021.0 0.0
01/02:00pm 19.2 19.2 15.3 78 2.3 ESE 9 15 5 8 1021.1 1021.1 0.0
01/01:30pm 19.2 18.7 14.9 76 2.5 SE 11 17 6 9 1021.4 1021.4 0.0
01/01:00pm 20.6 20.4 15.6 73 3.0 SE 11 17 6 9 1021.6 1021.6 0.0
01/12:30pm 19.6 20.8 14.8 74 2.8 ESE 2 7 1 4 1022.0 1022.0 0.0
01/12:00pm 21.1 22.0 15.0 68 3.6 SW 4 11 2 6 1022.4 1022.4 0.0
01/11:30am 20.2 20.5 14.6 70 3.3 S 6 13 3 7 1022.9 1022.9 0.0
01/11:00am 19.2 19.2 15.1 77 2.4 SSW 9 15 5 8 1023.6 1023.6 0.0
01/10:30am 18.5 18.8 16.1 86 1.4 SSW 9 13 5 7 1023.9 1023.9 0.0
01/10:00am 17.4 17.4 16.3 93 0.7 SW 11 17 6 9 1024.1 1024.1 0.0
01/09:30am 16.2 16.4 15.7 97 0.3 SW 9 15 5 8 1024.3 1024.3 0.0
01/09:00am 15.5 15.5 15.2 98 0.2 WSW 9 15 5 8 1024.3 1024.3 0.2
01/08:30am 14.4 14.0 14.1 98 0.2 SW 9 13 5 7 1024.5 1024.5 0.2
01/08:00am 14.4 14.0 14.1 98 0.2 SW 9 13 5 7 1024.2 1024.2 0.2
01/07:30am 14.2 13.4 13.9 98 0.2 WSW 11 15 6 8 1023.9 1023.9 0.2
01/07:00am 14.0 13.1 13.7 98 0.2 SW 11 17 6 9 1023.8 1023.8 0.2
01/06:30am 13.9 13.0 13.6 98 0.2 SW 11 15 6 8 1023.4 1023.4 0.2
01/06:00am 13.7 12.7 13.4 98 0.2 SW 11 15 6 8 1023.2 1023.2 0.2
01/05:30am 13.5 12.5 13.3 99 0.1 WSW 11 15 6 8 1023.1 1023.1 0.2
01/05:00am 13.4 12.3 13.1 98 0.2 WSW 11 15 6 8 1023.2 1023.2 0.2
01/04:30am 13.7 12.7 13.4 98 0.2 WSW 11 15 6 8 1023.2 1023.2 0.2
01/04:00am 13.3 12.5 13.0 98 0.2 WSW 9 15 5 8 1023.3 1023.3 0.2
01/03:30am 13.7 12.7 13.4 98 0.2 WSW 11 13 6 7 1023.5 1023.5 0.0
01/03:00am 14.0 13.1 13.8 99 0.1 WSW 11 15 6 8 1023.7 1023.7 0.0
01/02:30am 13.8 12.4 13.5 98 0.2 WSW 13 15 7 8 1023.8 1023.8 0.0
01/02:00am 14.0 13.1 13.7 98 0.2 SW 11 13 6 7 1023.9 1023.9 0.0
01/01:30am 14.0 12.7 13.7 98 0.2 WSW 13 15 7 8 1024.4 1024.4 0.0
01/01:00am 14.1 12.8 13.8 98 0.2 WSW 13 15 7 8 1024.5 1024.5 0.0
01/12:30am 14.5 13.4 14.2 98 0.2 SW 13 15 7 8 1024.6 1024.6 0.0
01/12:00am 14.3 13.1 14.0 98 0.2 WSW 13 15 7 8 1024.9 1024.9 0.0
 
Date/Time
EST
Temp
°C
App
Temp
°C
Dew
Point
Rel
Hum
%
Delta-T
°C
Wind Press
QNH
hPa
Press
MSL
hPa
Rain
since 9 am
mm
Dir
 
Spd
km/h
Gust
km/h
Spd
kts
Gust
kts
30/11:30pm 14.8 13.8 14.5 98 0.2 SW 13 17 7 9 1025.0 1025.0 0.0
30/11:00pm 14.7 13.6 14.4 98 0.2 SW 13 15 7 8 1025.3 1025.3 0.0
30/10:30pm 14.5 14.1 14.2 98 0.2 SW 9 11 5 6 1025.4 1025.4 0.0
30/10:00pm 14.6 13.9 14.3 98 0.2 SW 11 13 6 7 1025.5 1025.5 0.0
30/09:30pm 14.5 13.8 14.2 98 0.2 SW 11 13 6 7 1025.4 1025.4 0.0
30/09:00pm 14.8 13.8 14.5 98 0.2 SSW 13 15 7 8 1025.4 1025.4 0.0
30/08:30pm 15.3 14.5 15.0 98 0.2 S 13 17 7 9 1025.2 1025.2 0.0
30/08:00pm 15.4 14.9 14.9 97 0.3 S 11 13 6 7 1025.3 1025.3 0.0
30/07:30pm 15.6 15.9 15.1 97 0.3 S 7 7 4 4 1025.4 1025.4 0.0
30/07:00pm 15.6 15.6 15.1 97 0.3 S 9 9 5 5 1025.3 1025.3 0.0
30/06:30pm 15.3 15.1 14.8 97 0.3 SSE 9 11 5 6 1025.1 1025.1 0.0
30/06:00pm 15.6 15.6 15.1 97 0.3 SSE 9 11 5 6 1024.9 1024.9 0.0
30/05:30pm 15.5 15.4 15.0 97 0.3 SE 9 13 5 7 1024.7 1024.7 0.0
30/05:00pm 16.3 16.7 15.2 93 0.6 SSE 7 11 4 6 1024.7 1024.7 0.0
30/04:30pm 16.9 16.9 15.1 89 1.0 SSE 9 11 5 6 1024.6 1024.6 0.0
30/04:00pm 17.7 17.4 14.4 81 1.9 SSE 9 13 5 7 1024.6 1024.6 0.0
30/03:30pm 18.3 17.6 14.4 78 2.3 SE 11 17 6 9 1024.6 1024.6 0.0
30/03:00pm 19.0 18.6 15.1 78 2.3 SSE 11 17 6 9 1024.3 1024.3 0.0
30/02:30pm 18.6 18.7 15.5 82 1.8 SSE 9 13 5 7 1024.6 1024.6 0.0
30/02:00pm 18.9 18.5 15.2 79 2.2 SSE 11 19 6 10 1025.0 1025.0 0.0
30/01:30pm 18.2 17.9 15.5 84 1.6 SSE 11 17 6 9 1025.0 1025.0 0.0
30/01:00pm 19.1 18.1 14.6 75 2.6 SE 13 20 7 11 1025.4 1025.4 0.0
30/12:30pm 18.7 17.9 15.0 79 2.2 SSE 13 19 7 10 1025.5 1025.5 0.0
30/12:00pm 19.5 19.1 14.1 71 3.1 S 9 15 5 8 1026.4 1026.4 0.0
30/11:30am 18.8 18.2 14.7 77 2.4 SSW 11 20 6 11 1027.0 1027.0 0.0
30/11:00am 19.6 18.7 15.9 79 2.2 S 15 20 8 11 1027.3 1027.3 0.0
30/10:30am 18.4 17.6 16.0 86 1.4 SSE 15 20 8 11 1027.4 1027.4 0.0
30/10:00am 18.1 17.5 16.6 91 0.9 S 15 24 8 13 1028.0 1028.0 0.0
30/09:30am 15.6 15.2 15.1 97 0.3 SW 11 15 6 8 1028.2 1028.2 0.0
30/09:00am 15.2 14.2 14.6 96 0.3 SW 13 19 7 10 1028.5 1028.5 4.8
30/08:30am 14.8 13.6 14.0 95 0.5 SW 13 17 7 9 1028.2 1028.2 4.8
30/08:00am 14.1 12.4 13.6 97 0.3 SW 15 19 8 10 1028.0 1028.0 4.8
30/07:30am 13.1 11.1 12.6 97 0.3 SW 15 20 8 11 1027.9 1027.9 4.8
30/07:00am 12.4 10.2 12.1 98 0.2 SW 15 20 8 11 1028.0 1028.0 4.8
30/06:30am 12.8 10.7 12.5 98 0.2 SW 15 20 8 11 1027.7 1027.7 4.8
30/06:00am 12.8 10.7 12.5 98 0.2 SW 15 24 8 13 1027.7 1027.7 4.8
30/05:30am 12.9 10.9 12.6 98 0.2 SW 15 22 8 12 1027.6 1027.6 4.8
30/05:00am 13.1 11.5 12.8 98 0.2 SW 13 17 7 9 1027.5 1027.5 4.8
30/04:30am 13.1 11.9 12.8 98 0.2 SW 11 15 6 8 1027.7 1027.7 4.8
30/04:00am 13.2 13.0 12.9 98 0.2 SW 6 15 3 8 1027.8 1027.8 4.8
30/03:30am 13.1 11.5 12.8 98 0.2 SW 13 19 7 10 1027.8 1027.8 4.4
30/03:00am 13.2 11.3 12.9 98 0.2 SW 15 20 8 11 1028.0 1028.0 4.4
30/02:30am 13.4 11.5 13.1 98 0.2 SW 15 19 8 10 1028.1 1028.1 4.4
30/02:00am 13.6 12.2 13.3 98 0.2 SW 13 17 7 9 1028.1 1028.1 4.4
30/01:30am 13.7 12.0 13.5 99 0.1 SW 15 19 8 10 1028.0 1028.0 4.4
30/01:00am 14.1 13.6 13.9 99 0.1 S 9 15 5 8 1028.5 1028.5 4.4
30/12:30am 14.1 13.6 13.8 98 0.2 S 9 13 5 7 1028.8 1028.8 4.4
30/12:00am 14.6 14.8 14.3 98 0.2 WSW 6 11 3 6 1029.0 1029.0 4.2
 
Date/Time
EST
Temp
°C
App
Temp
°C
Dew
Point
Rel
Hum
%
Delta-T
°C
Wind Press
QNH
hPa
Press
MSL
hPa
Rain
since 9 am
mm
Dir
 
Spd
km/h
Gust
km/h
Spd
kts
Gust
kts
29/11:30pm 14.9 13.9 14.7 99 0.1 SW 13 17 7 9 1029.3 1029.3 4.2
29/11:00pm 15.0 15.2 14.7 98 0.2 SSW 7 13 4 7 1029.5 1029.5 4.2
29/10:30pm 15.2 15.1 14.9 98 0.2 SW 9 15 5 8 1030.0 1029.9 3.2
29/10:00pm 15.3 14.5 15.0 98 0.2 SW 13 15 7 8 1030.0 1029.9 3.0
29/09:30pm 15.4 14.6 15.1 98 0.2 SW 13 17 7 9 1029.9 1029.8 3.0
29/09:00pm 15.6 15.2 15.3 98 0.2 SW 11 15 6 8 1029.9 1029.8 3.0
29/08:30pm 15.7 15.8 15.4 98 0.2 SSW 9 17 5 9 1029.9 1029.8 3.0
29/08:00pm 15.8 15.2 15.6 99 0.1 SW 13 17 7 9 1029.9 1029.8 2.8

Other Formats:

Comma delimited format used in spreadsheet applications
http://www.bom.gov.au/fwo/IDN60801/IDN60801.94598.axf

JavaScript Object Notation format (JSON) in row-major order
http://www.bom.gov.au/fwo/IDN60801/IDN60801.94598.json